Terminal Aerodrome Forecast
Issued by NWS Mt. Holly, NJ

Current Version | Previous Version | Text Only | Print | Product List | Glossary On
Versions: 1 2 3 4 5 6 7 8 9 10 11 12 13 14 15 16 17 18 19 20 21 22 23
850
FTUS41 KPHI 231737
TAFTTN
TAF
KTTN 231737Z 2318/2418 09006KT P6SM VCSH SCT020 BKN050
     FM240000 12006KT P6SM BKN050
     FM240300 10006KT P6SM VCTS OVC015CB PROB30 2403/2409 4SM TSRA
      OVC015CB
     FM240900 09005KT 4SM -SHRA OVC015
     FM241500 02005KT P6SM BKN025=

USA.gov is the U.S. government's official web portal to all federal, state and local government web resources and services.